Time;durP1;ratioP1;P1;durP2;ratioP2;P2;SDS_P1;SDS_P2;PMS_P1;PMS_P2;Temp;Humidity;BMP_temperature;BMP_pressure;BME280_temperature;BME280_humidity;BME280_pressure;Samples;Min_cycle;Max_cycle;Signal;HPM_P1;HPM_P2
2023/08/12 00:01:08;;;;;;;7.53;6.33;;;22.60;99.90;;;;;;5004879;28;20482;-53
2023/08/12 00:03:35;;;;;;;8.03;7.13;;;22.60;99.90;;;;;;5007592;28;20489;-58
2023/08/12 00:06:05;;;;;;;8.80;6.70;;;22.60;99.90;;;;;;5009085;28;20466;-54
2023/08/12 00:08:31;;;;;;;7.53;6.53;;;22.60;99.90;;;;;;5010416;28;20549;-55
2023/08/12 00:10:58;;;;;;;12.73;7.20;;;22.60;99.90;;;;;;5012160;28;20486;-56
2023/08/12 00:13:25;;;;;;;6.73;5.37;;;22.60;99.90;;;;;;5009656;28;20458;-56
2023/08/12 00:15:53;;;;;;;8.47;5.77;;;22.60;99.90;;;;;;5006239;28;20470;-52
2023/08/12 00:18:21;;;;;;;8.27;6.43;;;22.60;99.90;;;;;;5006544;28;20469;-51
2023/08/12 00:20:48;;;;;;;8.87;6.80;;;22.60;99.90;;;;;;5009946;28;21062;-56
2023/08/12 00:23:14;;;;;;;8.77;6.60;;;22.60;99.90;;;;;;5007643;28;20831;-52
2023/08/12 00:25:41;;;;;;;8.23;5.90;;;22.60;99.90;;;;;;5007853;28;20543;-52
2023/08/12 00:28:08;;;;;;;11.47;6.97;;;22.60;99.90;;;;;;5008233;28;21236;-53
2023/08/12 00:30:34;;;;;;;11.30;7.60;;;22.60;99.90;;;;;;5006600;28;20469;-54
2023/08/12 00:33:02;;;;;;;10.57;6.30;;;22.60;99.90;;;;;;5009509;28;20963;-53
2023/08/12 00:35:30;;;;;;;11.70;6.87;;;22.60;99.90;;;;;;5008751;28;20477;-51
2023/08/12 00:37:56;;;;;;;9.87;7.57;;;22.60;99.90;;;;;;5009191;28;20475;-53
2023/08/12 00:40:24;;;;;;;7.40;6.07;;;22.60;99.90;;;;;;5005989;28;20454;-54
2023/08/12 00:42:50;;;;;;;9.00;6.10;;;22.60;99.90;;;;;;5007795;28;20849;-52
2023/08/12 00:45:17;;;;;;;9.87;6.40;;;22.60;99.90;;;;;;5007200;28;20465;-55
2023/08/12 00:47:44;;;;;;;7.90;5.97;;;22.60;99.90;;;;;;5010167;28;20469;-53
2023/08/12 00:50:14;;;;;;;10.00;6.93;;;22.60;99.90;;;;;;5010340;28;20537;-53
2023/08/12 00:52:43;;;;;;;8.37;6.40;;;22.60;99.90;;;;;;5008988;28;20466;-55
2023/08/12 00:55:10;;;;;;;7.60;5.93;;;22.60;99.90;;;;;;5008892;28;20459;-52
2023/08/12 00:57:37;;;;;;;8.37;6.60;;;22.50;99.90;;;;;;5006038;28;21846;-52
2023/08/12 01:00:04;;;;;;;8.57;6.40;;;22.60;99.90;;;;;;5006919;28;20461;-55
2023/08/12 01:02:31;;;;;;;7.73;6.10;;;22.60;99.90;;;;;;5008050;28;20634;-52
2023/08/12 01:04:59;;;;;;;7.40;5.93;;;22.50;99.90;;;;;;5007758;28;20459;-50
2023/08/12 01:07:25;;;;;;;9.23;6.50;;;22.50;99.90;;;;;;5008244;28;20544;-55
2023/08/12 01:09:54;;;;;;;6.07;5.10;;;22.50;99.90;;;;;;5006967;28;20931;-53
2023/08/12 01:12:26;;;;;;;9.50;7.17;;;22.50;99.90;;;;;;5008181;28;20456;-53
2023/08/12 01:15:05;;;;;;;8.97;6.77;;;22.60;99.90;;;;;;5004605;28;20465;-51
2023/08/12 01:17:33;;;;;;;7.80;5.70;;;22.50;99.90;;;;;;5005634;28;21002;-51
2023/08/12 01:20:02;;;;;;;8.43;6.00;;;22.50;99.90;;;;;;5006590;28;20857;-54
2023/08/12 01:22:33;;;;;;;8.93;6.20;;;22.50;99.90;;;;;;5008216;28;20495;-53
2023/08/12 01:25:01;;;;;;;8.47;5.93;;;22.50;99.90;;;;;;5004933;28;20459;-52
2023/08/12 01:27:27;;;;;;;11.50;6.37;;;22.50;99.90;;;;;;5006269;28;21041;-51
2023/08/12 01:29:54;;;;;;;6.43;5.53;;;22.60;99.90;;;;;;5003848;28;20867;-54
2023/08/12 01:32:27;;;;;;;9.47;6.13;;;22.50;99.90;;;;;;5004046;28;20462;-54
2023/08/12 01:35:01;;;;;;;9.53;6.87;;;22.50;99.90;;;;;;5004858;28;20471;-54
2023/08/12 01:37:30;;;;;;;7.53;6.47;;;22.50;99.90;;;;;;5006551;28;20464;-53
2023/08/12 01:39:59;;;;;;;6.13;5.53;;;22.50;99.90;;;;;;5004675;28;20930;-51
2023/08/12 01:42:29;;;;;;;7.60;6.30;;;22.50;99.90;;;;;;5005803;28;20470;-50
2023/08/12 01:44:56;;;;;;;9.27;6.10;;;22.50;99.90;;;;;;5004079;28;21184;-53
2023/08/12 01:47:23;;;;;;;7.33;6.30;;;22.50;99.90;;;;;;5006296;28;20460;-55
2023/08/12 01:49:50;;;;;;;8.00;5.37;;;22.60;99.90;;;;;;5004690;28;20503;-53
2023/08/12 01:52:17;;;;;;;8.00;5.00;;;22.50;99.90;;;;;;5004987;28;20459;-54
2023/08/12 01:54:43;;;;;;;20.43;5.90;;;22.50;99.90;;;;;;5003914;28;20954;-53
2023/08/12 01:57:11;;;;;;;6.93;5.37;;;22.50;99.90;;;;;;5005186;28;20463;-53
2023/08/12 01:59:39;;;;;;;7.30;5.20;;;22.50;99.90;;;;;;5005893;28;20466;-56
2023/08/12 02:02:06;;;;;;;9.60;5.90;;;22.50;99.90;;;;;;5002264;28;21170;-54
2023/08/12 02:04:33;;;;;;;6.67;5.20;;;22.50;99.90;;;;;;5002315;28;20489;-57
2023/08/12 02:07:00;;;;;;;6.60;5.27;;;22.50;99.90;;;;;;5006824;28;20898;-54
2023/08/12 02:09:27;;;;;;;5.93;4.90;;;22.50;99.90;;;;;;5005085;28;20489;-55
2023/08/12 02:11:53;;;;;;;8.30;5.43;;;22.50;99.90;;;;;;5003484;28;20462;-54
2023/08/12 02:14:20;;;;;;;6.33;5.40;;;22.50;99.90;;;;;;5005963;28;20479;-54
2023/08/12 02:16:48;;;;;;;6.30;4.93;;;22.50;99.90;;;;;;5002981;28;20463;-53
2023/08/12 02:19:15;;;;;;;6.53;5.80;;;22.50;99.90;;;;;;5005709;28;20451;-55
2023/08/12 02:21:42;;;;;;;11.60;4.70;;;22.50;99.90;;;;;;5002622;28;20458;-53
2023/08/12 02:24:09;;;;;;;5.10;4.20;;;22.50;99.90;;;;;;5005005;28;21084;-53
2023/08/12 02:26:36;;;;;;;6.40;5.30;;;22.50;99.90;;;;;;5002904;28;20489;-53
2023/08/12 02:29:02;;;;;;;7.93;5.17;;;22.50;99.90;;;;;;5005378;28;20490;-53
2023/08/12 02:31:29;;;;;;;6.23;5.13;;;22.50;99.90;;;;;;5006001;28;20486;-52
2023/08/12 02:33:57;;;;;;;6.63;5.13;;;22.50;99.90;;;;;;5006988;28;20476;-54
2023/08/12 02:36:25;;;;;;;6.37;5.50;;;22.50;99.90;;;;;;5005267;28;20459;-55
2023/08/12 02:38:51;;;;;;;6.97;5.60;;;22.50;99.90;;;;;;5004976;28;21133;-55
2023/08/12 02:41:18;;;;;;;6.50;5.40;;;22.50;99.90;;;;;;5004261;28;20470;-52
2023/08/12 02:43:45;;;;;;;6.27;5.47;;;22.50;99.90;;;;;;5005102;28;21037;-51
2023/08/12 02:46:12;;;;;;;5.73;5.17;;;22.50;99.90;;;;;;5005428;28;20495;-54
2023/08/12 02:48:39;;;;;;;5.53;5.03;;;22.50;99.90;;;;;;5005178;28;20471;-55
2023/08/12 02:51:07;;;;;;;5.63;5.03;;;22.50;99.90;;;;;;5005470;28;21001;-52
2023/08/12 02:53:34;;;;;;;6.10;5.50;;;22.50;99.90;;;;;;5004197;28;20467;-54
2023/08/12 02:56:00;;;;;;;9.60;5.93;;;22.50;99.90;;;;;;5004513;28;20465;-54
2023/08/12 02:58:27;;;;;;;6.50;5.13;;;22.50;99.90;;;;;;5004181;28;20460;-53
2023/08/12 03:00:55;;;;;;;9.00;5.60;;;22.50;99.90;;;;;;5005258;28;20462;-54
2023/08/12 03:03:22;;;;;;;5.90;5.07;;;22.50;99.90;;;;;;5006125;28;20990;-53
2023/08/12 03:05:49;;;;;;;5.27;4.77;;;22.50;99.90;;;;;;5003803;28;21149;-55
2023/08/12 03:08:17;;;;;;;5.97;4.43;;;22.50;99.90;;;;;;5008731;28;20465;-54
2023/08/12 03:10:45;;;;;;;6.00;4.97;;;22.50;99.90;;;;;;5005587;28;20468;-55
2023/08/12 03:13:12;;;;;;;7.20;5.50;;;22.50;99.90;;;;;;5010536;28;20481;-52
2023/08/12 03:15:40;;;;;;;7.30;5.80;;;22.50;99.90;;;;;;5006861;28;20462;-53
2023/08/12 03:18:06;;;;;;;7.03;5.50;;;22.50;99.90;;;;;;5005956;28;20469;-54
2023/08/12 03:20:33;;;;;;;6.23;5.33;;;22.50;99.90;;;;;;5003889;28;21075;-57
2023/08/12 03:23:00;;;;;;;7.33;5.80;;;22.50;99.90;;;;;;5008959;28;20458;-56
2023/08/12 03:25:28;;;;;;;10.17;4.50;;;22.50;99.90;;;;;;5011231;28;20542;-51
2023/08/12 03:27:55;;;;;;;6.23;5.07;;;22.50;99.90;;;;;;5008410;28;20494;-52
2023/08/12 03:30:21;;;;;;;6.13;5.00;;;22.50;99.90;;;;;;5008309;28;20454;-56
2023/08/12 03:32:48;;;;;;;7.67;5.93;;;22.50;99.90;;;;;;5008713;28;20466;-52
2023/08/12 03:35:15;;;;;;;5.80;5.00;;;22.50;99.90;;;;;;5009863;28;20473;-53
2023/08/12 03:37:42;;;;;;;7.50;5.20;;;22.50;99.90;;;;;;5010239;28;20470;-52
2023/08/12 03:40:09;;;;;;;6.57;5.40;;;22.50;99.90;;;;;;5004143;28;20453;-53
2023/08/12 03:42:37;;;;;;;7.00;5.10;;;22.50;99.90;;;;;;5005450;28;20466;-54
2023/08/12 03:45:05;;;;;;;5.83;5.23;;;22.50;99.90;;;;;;5004560;28;20482;-55
2023/08/12 03:47:32;;;;;;;6.40;4.67;;;22.50;99.90;;;;;;5003198;28;20460;-53
2023/08/12 03:49:58;;;;;;;5.27;4.77;;;22.50;99.90;;;;;;5002325;28;20459;-53
2023/08/12 03:52:25;;;;;;;6.50;4.80;;;22.50;99.90;;;;;;5002941;28;20455;-55
2023/08/12 03:54:52;;;;;;;5.40;4.40;;;22.50;99.90;;;;;;5001971;28;20471;-52
2023/08/12 03:57:19;;;;;;;5.27;4.50;;;22.50;99.90;;;;;;5002534;28;20485;-52
2023/08/12 03:59:47;;;;;;;6.07;4.80;;;22.50;99.90;;;;;;5004210;28;20455;-55
2023/08/12 04:02:14;;;;;;;7.70;5.40;;;22.50;99.90;;;;;;5004033;28;20479;-56
2023/08/12 04:04:42;;;;;;;6.50;4.97;;;22.50;99.90;;;;;;5002317;28;20490;-53
2023/08/12 04:07:09;;;;;;;6.63;4.73;;;22.50;99.90;;;;;;5006688;28;20459;-50
2023/08/12 04:09:36;;;;;;;4.80;4.40;;;22.50;99.90;;;;;;5011662;28;20458;-55
2023/08/12 04:12:02;;;;;;;5.53;4.80;;;22.50;99.90;;;;;;5006729;28;20865;-53
2023/08/12 04:14:29;;;;;;;6.43;5.30;;;22.50;99.90;;;;;;5007964;28;20474;-54
2023/08/12 04:16:57;;;;;;;6.50;5.63;;;22.50;99.90;;;;;;5004266;28;21093;-52
2023/08/12 04:19:24;;;;;;;7.60;5.10;;;22.50;99.90;;;;;;5009980;28;20502;-53
2023/08/12 04:21:51;;;;;;;6.50;5.17;;;22.50;99.90;;;;;;5005970;28;20831;-52
2023/08/12 04:24:21;;;;;;;5.27;4.77;;;22.50;99.90;;;;;;5007165;28;20486;-52
2023/08/12 04:26:47;;;;;;;7.63;5.20;;;22.50;99.90;;;;;;5005632;28;20589;-52
2023/08/12 04:29:14;;;;;;;5.40;4.90;;;22.50;99.90;;;;;;5007143;28;20459;-55
2023/08/12 04:31:41;;;;;;;6.50;4.90;;;22.50;99.90;;;;;;5006707;28;20475;-52
2023/08/12 04:34:09;;;;;;;5.13;4.40;;;22.50;99.90;;;;;;5008833;28;20979;-55
2023/08/12 04:36:36;;;;;;;6.30;5.13;;;22.50;99.90;;;;;;5005103;28;20470;-53
2023/08/12 04:39:03;;;;;;;5.67;4.40;;;22.50;99.90;;;;;;5006479;28;20561;-50
2023/08/12 04:41:30;;;;;;;8.83;5.30;;;22.50;99.90;;;;;;5005227;28;20469;-50
2023/08/12 04:43:56;;;;;;;5.77;4.83;;;22.50;99.90;;;;;;5004624;28;20613;-52
2023/08/12 04:46:23;;;;;;;5.23;4.17;;;22.50;99.90;;;;;;5004055;28;20463;-51
2023/08/12 04:48:50;;;;;;;7.17;4.60;;;22.50;99.90;;;;;;5009937;28;20823;-54
2023/08/12 04:51:18;;;;;;;5.60;5.10;;;22.50;99.90;;;;;;5006389;28;20482;-55
2023/08/12 04:53:44;;;;;;;5.20;4.53;;;22.50;99.90;;;;;;5006513;28;20509;-53
2023/08/12 04:56:11;;;;;;;5.53;5.07;;;22.50;99.90;;;;;;5006774;28;21086;-55
2023/08/12 04:58:38;;;;;;;6.20;4.70;;;22.50;99.90;;;;;;5008213;28;20459;-53
2023/08/12 05:01:05;;;;;;;5.50;4.87;;;22.50;99.90;;;;;;5010693;28;20460;-53
2023/08/12 05:03:31;;;;;;;5.40;4.90;;;22.50;99.90;;;;;;5010938;28;20830;-54
2023/08/12 05:05:58;;;;;;;4.53;3.97;;;22.50;99.90;;;;;;5010707;28;20471;-53
2023/08/12 05:08:26;;;;;;;6.90;4.60;;;22.50;99.90;;;;;;5012425;28;20459;-51
2023/08/12 05:10:53;;;;;;;5.50;4.83;;;22.50;99.90;;;;;;5009000;28;20470;-51
2023/08/12 05:13:20;;;;;;;6.13;4.50;;;22.50;99.90;;;;;;5009717;28;20593;-52
2023/08/12 05:15:47;;;;;;;6.53;4.97;;;22.50;99.90;;;;;;5001887;28;20998;-56
2023/08/12 05:18:14;;;;;;;6.47;4.37;;;22.50;99.90;;;;;;5003814;28;20550;-51
2023/08/12 05:20:41;;;;;;;5.00;4.50;;;22.50;99.90;;;;;;5004045;28;21232;-54
2023/08/12 05:23:08;;;;;;;6.13;4.70;;;22.50;99.90;;;;;;5002952;28;20586;-54
2023/08/12 05:25:36;;;;;;;5.23;3.93;;;22.50;99.90;;;;;;5003154;28;20475;-52
2023/08/12 05:28:03;;;;;;;4.43;3.67;;;22.50;99.90;;;;;;5006536;28;20455;-54
2023/08/12 05:30:30;;;;;;;5.07;4.07;;;22.50;99.90;;;;;;5006660;28;20472;-52
2023/08/12 05:32:56;;;;;;;4.87;4.10;;;22.50;99.90;;;;;;5008593;28;20472;-54
2023/08/12 05:35:23;;;;;;;5.90;4.57;;;22.50;99.90;;;;;;5010502;28;20872;-53
2023/08/12 05:37:50;;;;;;;5.63;4.30;;;22.50;99.90;;;;;;5006876;28;20454;-50
2023/08/12 05:40:17;;;;;;;6.00;4.37;;;22.50;99.90;;;;;;5007142;28;20492;-54
2023/08/12 05:42:45;;;;;;;5.03;4.50;;;22.50;99.90;;;;;;5007391;28;20540;-53
2023/08/12 05:45:11;;;;;;;4.00;3.20;;;22.50;99.90;;;;;;5007113;28;20477;-50
2023/08/12 05:47:38;;;;;;;5.07;4.07;;;22.50;99.90;;;;;;5005553;28;20855;-55
2023/08/12 05:50:06;;;;;;;4.73;4.10;;;22.50;99.90;;;;;;5006616;28;20464;-55
2023/08/12 05:52:33;;;;;;;4.83;4.33;;;22.50;99.90;;;;;;5004825;28;20469;-56
2023/08/12 05:55:00;;;;;;;5.50;4.50;;;22.50;99.90;;;;;;5004913;28;20972;-51
2023/08/12 05:57:27;;;;;;;4.97;4.20;;;22.50;99.90;;;;;;5003895;28;20831;-54
2023/08/12 05:59:55;;;;;;;4.30;3.90;;;22.50;99.90;;;;;;5004807;28;20469;-53
2023/08/12 06:02:21;;;;;;;4.60;4.13;;;22.50;99.90;;;;;;5002552;28;20482;-50
2023/08/12 06:04:48;;;;;;;4.40;3.93;;;22.50;99.90;;;;;;5001189;28;20578;-51
2023/08/12 06:07:15;;;;;;;7.07;4.77;;;22.50;99.90;;;;;;5000370;28;20467;-56
2023/08/12 06:09:41;;;;;;;4.63;3.80;;;22.50;99.90;;;;;;4997135;28;20819;-56
2023/08/12 06:12:08;;;;;;;5.30;4.80;;;22.50;99.90;;;;;;5002215;28;20503;-51
2023/08/12 06:14:38;;;;;;;5.53;4.53;;;22.50;99.90;;;;;;5001915;28;20471;-54
2023/08/12 06:17:06;;;;;;;6.77;4.90;;;22.50;99.90;;;;;;5001843;28;21081;-56
2023/08/12 06:19:33;;;;;;;4.90;4.27;;;22.50;99.90;;;;;;5002033;28;20470;-54
2023/08/12 06:22:00;;;;;;;5.70;5.13;;;22.50;99.90;;;;;;5001363;28;20475;-50
2023/08/12 06:24:27;;;;;;;4.43;4.03;;;22.50;99.90;;;;;;5002888;28;20487;-50
2023/08/12 06:26:53;;;;;;;7.20;5.70;;;22.50;99.90;;;;;;5003534;28;20473;-52
2023/08/12 06:29:20;;;;;;;4.87;4.37;;;22.50;99.90;;;;;;5002458;28;20967;-51
2023/08/12 06:31:47;;;;;;;6.47;5.00;;;22.50;99.90;;;;;;5004080;28;20685;-53
2023/08/12 06:34:15;;;;;;;6.67;5.30;;;22.50;99.90;;;;;;5002790;28;20772;-51
2023/08/12 06:36:42;;;;;;;5.63;4.63;;;22.50;99.90;;;;;;5001844;28;20470;-52
2023/08/12 06:39:08;;;;;;;7.30;5.60;;;22.50;99.90;;;;;;5007222;28;20469;-51
2023/08/12 06:41:35;;;;;;;6.77;6.07;;;22.50;99.90;;;;;;5012528;28;20855;-53
2023/08/12 06:44:04;;;;;;;4.97;4.57;;;22.50;99.90;;;;;;5004878;28;20467;-56
2023/08/12 06:46:30;;;;;;;6.03;5.43;;;22.50;99.90;;;;;;5009065;28;20525;-53
2023/08/12 06:48:57;;;;;;;6.33;5.33;;;22.50;99.90;;;;;;5010102;28;20921;-55
2023/08/12 06:51:25;;;;;;;6.00;4.90;;;22.50;99.90;;;;;;5012484;28;20461;-57
2023/08/12 06:53:52;;;;;;;5.60;4.67;;;22.50;99.90;;;;;;5006202;28;20469;-54
2023/08/12 06:56:18;;;;;;;5.73;4.70;;;22.50;99.90;;;;;;5003911;28;20516;-52
2023/08/12 06:58:45;;;;;;;5.67;5.07;;;22.50;99.90;;;;;;5004527;28;20467;-54
2023/08/12 07:01:12;;;;;;;5.43;4.90;;;22.50;99.90;;;;;;5002574;28;20489;-55
2023/08/12 07:03:38;;;;;;;7.57;5.27;;;22.50;99.90;;;;;;5003224;28;20985;-53
2023/08/12 07:06:05;;;;;;;5.20;4.70;;;22.50;99.90;;;;;;5004523;28;20847;-50
2023/08/12 07:08:33;;;;;;;6.70;5.00;;;22.50;99.90;;;;;;5004579;28;21076;-55
2023/08/12 07:11:00;;;;;;;6.40;5.50;;;22.50;99.90;;;;;;5005465;28;20474;-53
2023/08/12 07:13:27;;;;;;;5.10;4.60;;;22.50;99.90;;;;;;5007529;28;20460;-53
2023/08/12 07:15:53;;;;;;;5.53;5.03;;;22.50;99.90;;;;;;5006017;28;20474;-53
2023/08/12 07:18:20;;;;;;;5.80;5.10;;;22.50;99.90;;;;;;5004302;28;20938;-55
2023/08/12 07:20:47;;;;;;;5.73;5.00;;;22.50;99.90;;;;;;5006034;28;20467;-55
2023/08/12 07:23:13;;;;;;;7.53;5.37;;;22.40;99.90;;;;;;5008580;28;20466;-55
2023/08/12 07:25:41;;;;;;;5.27;4.77;;;22.40;99.90;;;;;;5004492;28;20822;-55
2023/08/12 07:28:08;;;;;;;6.67;5.30;;;22.50;99.90;;;;;;5010096;28;20458;-54
2023/08/12 07:30:36;;;;;;;6.30;5.00;;;22.50;99.90;;;;;;5005247;28;20982;-52
2023/08/12 07:33:02;;;;;;;5.73;4.87;;;22.50;99.90;;;;;;5006577;28;20487;-53
2023/08/12 07:35:29;;;;;;;6.97;4.80;;;22.40;99.90;;;;;;5005105;28;20475;-50
2023/08/12 07:37:56;;;;;;;6.47;5.20;;;22.40;99.90;;;;;;5002290;28;20471;-54
2023/08/12 07:40:22;;;;;;;5.17;4.67;;;22.50;99.90;;;;;;5006525;28;20462;-54
2023/08/12 07:42:50;;;;;;;6.30;5.50;;;22.40;99.90;;;;;;5004944;28;20470;-50
2023/08/12 07:45:17;;;;;;;4.73;4.30;;;22.40;99.90;;;;;;5006656;28;20820;-54
2023/08/12 07:47:44;;;;;;;4.93;4.30;;;22.50;99.90;;;;;;5005132;28;20458;-56
2023/08/12 07:50:11;;;;;;;6.30;5.03;;;22.50;99.90;;;;;;5005287;28;20455;-52
2023/08/12 07:52:38;;;;;;;4.73;4.30;;;22.50;99.90;;;;;;5005600;28;20549;-56
2023/08/12 07:55:06;;;;;;;5.23;4.73;;;22.40;99.90;;;;;;5002480;28;20838;-55
2023/08/12 07:57:32;;;;;;;5.97;4.70;;;22.40;99.90;;;;;;5004709;28;20462;-55
2023/08/12 08:00:00;;;;;;;5.10;4.60;;;22.40;99.90;;;;;;5002719;28;20471;-51
2023/08/12 08:02:27;;;;;;;4.43;3.70;;;22.50;99.90;;;;;;5005036;28;20482;-54
2023/08/12 08:04:54;;;;;;;5.23;4.73;;;22.40;99.90;;;;;;5004700;28;20478;-55
2023/08/12 08:07:21;;;;;;;4.77;4.37;;;22.40;99.90;;;;;;5007438;28;20990;-56
2023/08/12 08:09:47;;;;;;;4.90;4.47;;;22.50;99.90;;;;;;5005597;28;20466;-51
2023/08/12 08:12:14;;;;;;;4.93;4.43;;;22.50;99.90;;;;;;5005360;28;20470;-56
2023/08/12 08:14:41;;;;;;;5.90;4.90;;;22.50;99.90;;;;;;5007259;28;20470;-57
2023/08/12 08:17:09;;;;;;;5.97;5.00;;;22.50;99.90;;;;;;5010555;28;20471;-54
2023/08/12 08:19:36;;;;;;;4.40;4.00;;;22.50;99.90;;;;;;5011003;28;20586;-54
2023/08/12 08:22:03;;;;;;;8.27;4.30;;;22.50;99.90;;;;;;5009838;28;20459;-55
2023/08/12 08:24:29;;;;;;;6.00;4.20;;;22.50;99.90;;;;;;5008840;28;20993;-54
2023/08/12 08:26:56;;;;;;;4.83;4.33;;;22.50;99.90;;;;;;5005907;28;20505;-56
2023/08/12 08:29:24;;;;;;;6.10;5.47;;;22.50;99.90;;;;;;5008323;28;20464;-52
2023/08/12 08:31:51;;;;;;;4.50;4.10;;;22.50;99.90;;;;;;5005464;28;21862;-53
2023/08/12 08:34:19;;;;;;;6.47;4.30;;;22.50;99.90;;;;;;5007163;28;20466;-52
2023/08/12 08:36:45;;;;;;;5.60;4.40;;;22.50;99.90;;;;;;5005602;28;21039;-53
2023/08/12 08:39:12;;;;;;;4.80;4.37;;;22.50;99.90;;;;;;5007445;28;20462;-54
2023/08/12 08:41:40;;;;;;;4.77;4.30;;;22.50;99.90;;;;;;5008666;28;20471;-53
2023/08/12 08:44:08;;;;;;;3.83;3.47;;;22.50;99.90;;;;;;5006405;28;20825;-51
2023/08/12 08:46:35;;;;;;;5.00;3.33;;;22.50;99.90;;;;;;5006144;28;20526;-50
2023/08/12 08:49:03;;;;;;;5.20;4.30;;;22.50;99.90;;;;;;5004931;28;20846;-52
2023/08/12 08:51:32;;;;;;;4.70;3.60;;;22.50;99.90;;;;;;5003251;28;20471;-56
2023/08/12 08:53:59;;;;;;;4.60;4.13;;;22.50;99.90;;;;;;5004801;28;20724;-53
2023/08/12 08:56:26;;;;;;;4.87;4.47;;;22.50;99.90;;;;;;5003362;28;20471;-50
2023/08/12 08:58:53;;;;;;;4.00;3.60;;;22.50;99.90;;;;;;5005721;28;20466;-51
2023/08/12 09:01:22;;;;;;;7.83;4.40;;;22.60;99.90;;;;;;5004543;28;20479;-52
2023/08/12 09:03:51;;;;;;;4.40;3.23;;;22.60;99.90;;;;;;5003320;28;20469;-53
2023/08/12 09:06:20;;;;;;;4.20;3.80;;;22.60;99.90;;;;;;4999750;28;20483;-55
2023/08/12 09:08:51;;;;;;;5.80;3.90;;;22.60;99.90;;;;;;4999278;28;20469;-54
2023/08/12 09:11:19;;;;;;;7.93;3.97;;;22.60;99.90;;;;;;5002677;28;20874;-55
2023/08/12 09:13:46;;;;;;;7.20;3.80;;;22.60;99.90;;;;;;5000223;28;20981;-51
2023/08/12 09:16:13;;;;;;;4.33;3.80;;;22.60;99.90;;;;;;5002804;28;20463;-58
2023/08/12 09:18:41;;;;;;;4.10;3.70;;;22.60;99.90;;;;;;5004378;28;20458;-55
2023/08/12 09:21:09;;;;;;;7.33;4.27;;;22.60;99.90;;;;;;5004488;28;20485;-56
2023/08/12 09:23:36;;;;;;;3.87;3.20;;;22.60;99.90;;;;;;5006341;28;20482;-56
2023/08/12 09:26:13;;;;;;;4.70;3.40;;;22.60;99.90;;;;;;5003192;28;20489;-53
2023/08/12 09:28:40;;;;;;;5.50;4.00;;;22.60;99.90;;;;;;5005825;28;20461;-55
2023/08/12 09:31:07;;;;;;;3.83;3.50;;;22.60;99.90;;;;;;5005809;28;20546;-57
2023/08/12 09:33:40;;;;;;;5.37;3.27;;;22.60;99.90;;;;;;5006465;28;20588;-57
2023/08/12 09:36:06;;;;;;;5.97;3.63;;;22.60;99.90;;;;;;5007367;28;20566;-52
2023/08/12 09:38:34;;;;;;;3.40;3.10;;;22.60;99.90;;;;;;5004727;28;20466;-55
2023/08/12 09:41:01;;;;;;;3.20;2.90;;;22.60;99.90;;;;;;5002430;28;20459;-52
2023/08/12 09:43:30;;;;;;;7.83;3.77;;;22.60;99.90;;;;;;5004103;28;20455;-53
2023/08/12 09:45:58;;;;;;;3.80;2.70;;;22.60;99.90;;;;;;5004203;28;20564;-55
2023/08/12 09:48:25;;;;;;;3.50;2.60;;;22.60;99.90;;;;;;5005904;28;21472;-55
2023/08/12 09:50:53;;;;;;;3.73;3.43;;;22.60;99.90;;;;;;5004212;28;20474;-53
2023/08/12 09:53:20;;;;;;;3.40;3.00;;;22.60;99.90;;;;;;5004854;28;20466;-52
2023/08/12 09:55:49;;;;;;;3.40;2.73;;;22.60;99.90;;;;;;5005630;28;20458;-53
2023/08/12 09:58:18;;;;;;;3.93;3.10;;;22.60;99.90;;;;;;4997460;28;20934;-54
2023/08/12 10:00:46;;;;;;;5.67;3.90;;;22.60;99.90;;;;;;5005548;28;20467;-55
2023/08/12 10:03:15;;;;;;;4.10;3.23;;;22.70;99.90;;;;;;5004682;28;20466;-54
2023/08/12 10:05:43;;;;;;;6.27;3.27;;;22.60;99.90;;;;;;5004817;28;20848;-55
2023/08/12 10:08:10;;;;;;;3.10;2.67;;;22.70;99.90;;;;;;4993741;28;20486;-56
2023/08/12 10:10:37;;;;;;;3.57;3.30;;;22.70;99.90;;;;;;4996894;28;20741;-58
2023/08/12 10:13:07;;;;;;;3.43;3.13;;;22.70;99.90;;;;;;4990584;28;20470;-56
2023/08/12 10:15:34;;;;;;;3.00;2.80;;;22.70;99.90;;;;;;4985836;28;20860;-57
2023/08/12 10:18:02;;;;;;;3.67;3.33;;;22.70;99.90;;;;;;4985471;28;21009;-62
2023/08/12 10:20:32;;;;;;;2.57;2.37;;;22.70;99.90;;;;;;4995725;28;20947;-58
2023/08/12 10:23:01;;;;;;;3.77;2.90;;;22.70;99.90;;;;;;4991651;28;20467;-58
2023/08/12 10:25:33;;;;;;;3.50;2.40;;;22.80;99.90;;;;;;4984684;28;20463;-57
2023/08/12 10:27:59;;;;;;;2.97;2.47;;;22.80;99.90;;;;;;4989917;28;20495;-62
2023/08/12 10:30:29;;;;;;;2.70;2.50;;;22.80;99.90;;;;;;4990192;28;20460;-61
2023/08/12 10:32:56;;;;;;;2.50;2.17;;;22.80;99.90;;;;;;4992075;28;20466;-58
2023/08/12 10:35:24;;;;;;;4.60;3.63;;;22.90;99.90;;;;;;4994542;28;20463;-55
2023/08/12 10:37:51;;;;;;;2.40;2.20;;;22.90;99.90;;;;;;4992945;28;22042;-55
2023/08/12 10:40:22;;;;;;;2.33;2.10;;;22.90;99.90;;;;;;4998762;28;20462;-57
2023/08/12 10:42:50;;;;;;;4.37;2.43;;;23.00;99.90;;;;;;4992072;28;20462;-60
2023/08/12 10:45:18;;;;;;;2.20;2.00;;;23.00;99.90;;;;;;4999963;28;20866;-57
2023/08/12 10:47:52;;;;;;;2.70;2.20;;;23.00;99.90;;;;;;4998910;28;20470;-58
2023/08/12 10:50:20;;;;;;;2.27;2.07;;;23.10;99.90;;;;;;4993542;28;20560;-60
2023/08/12 10:52:51;;;;;;;2.33;2.00;;;23.10;99.90;;;;;;4995682;28;20628;-52
2023/08/12 10:55:20;;;;;;;2.47;2.20;;;23.10;99.90;;;;;;5000640;28;20466;-63
2023/08/12 10:57:47;;;;;;;4.10;1.93;;;23.20;99.90;;;;;;4994965;28;20993;-56
2023/08/12 11:00:16;;;;;;;3.00;2.00;;;23.20;99.90;;;;;;5002945;28;20583;-57
2023/08/12 11:02:46;;;;;;;2.43;1.80;;;23.20;99.90;;;;;;5003488;28;20570;-59
2023/08/12 11:05:14;;;;;;;2.23;2.03;;;23.30;99.90;;;;;;5005215;28;20469;-56
2023/08/12 11:07:42;;;;;;;2.23;2.03;;;23.30;99.90;;;;;;4996339;28;20582;-57
2023/08/12 11:10:15;;;;;;;1.97;1.70;;;23.30;99.90;;;;;;4991081;28;21299;-57
2023/08/12 11:12:46;;;;;;;1.80;1.70;;;23.30;99.90;;;;;;5002855;28;20614;-57
2023/08/12 11:15:13;;;;;;;1.90;1.80;;;23.30;99.90;;;;;;4992773;28;21269;-54
2023/08/12 11:17:42;;;;;;;1.53;1.43;;;23.40;99.90;;;;;;4993389;28;21186;-61
2023/08/12 11:20:10;;;;;;;2.30;2.07;;;23.40;99.90;;;;;;5002422;28;21048;-63
2023/08/12 11:22:39;;;;;;;2.10;1.90;;;23.40;99.90;;;;;;5008506;28;20467;-58
2023/08/12 11:25:08;;;;;;;1.83;1.63;;;23.40;99.90;;;;;;5008076;28;20466;-59
2023/08/12 11:27:45;;;;;;;2.20;2.00;;;23.50;99.90;;;;;;5007125;28;20482;-65
2023/08/12 11:30:15;;;;;;;2.23;1.73;;;23.50;99.90;;;;;;5005163;28;20460;-59
2023/08/12 11:32:43;;;;;;;1.77;1.63;;;23.50;99.90;;;;;;5008608;28;20450;-57
2023/08/12 11:35:11;;;;;;;1.73;1.63;;;23.50;99.90;;;;;;5009067;28;20456;-56
2023/08/12 11:37:38;;;;;;;4.33;2.50;;;23.50;99.90;;;;;;5006575;28;20914;-54
2023/08/12 11:40:08;;;;;;;3.20;2.07;;;23.50;99.90;;;;;;5004689;28;20832;-56
2023/08/12 11:42:35;;;;;;;1.83;1.63;;;23.60;99.90;;;;;;5006653;28;20983;-55
2023/08/12 11:45:03;;;;;;;3.33;1.67;;;23.60;99.90;;;;;;5005641;28;20466;-56
2023/08/12 11:47:30;;;;;;;3.00;1.90;;;23.60;99.90;;;;;;5008151;28;20860;-56
2023/08/12 11:49:57;;;;;;;3.20;1.50;;;23.60;99.90;;;;;;5006773;28;20459;-62
2023/08/12 11:52:25;;;;;;;2.10;1.90;;;23.60;99.90;;;;;;5008003;28;20469;-63
2023/08/12 11:54:52;;;;;;;3.10;1.60;;;23.60;99.90;;;;;;5007705;28;20473;-63
2023/08/12 11:57:19;;;;;;;2.63;1.53;;;23.70;99.90;;;;;;5014647;28;20466;-62
2023/08/12 11:59:45;;;;;;;3.30;1.60;;;23.70;99.90;;;;;;5007504;28;20903;-62
2023/08/12 12:02:14;;;;;;;1.80;1.70;;;23.70;99.90;;;;;;5006423;28;20491;-62
2023/08/12 12:04:43;;;;;;;2.00;1.53;;;23.70;99.90;;;;;;5008940;28;20479;-62
2023/08/12 12:07:19;;;;;;;1.80;1.60;;;23.70;99.90;;;;;;5007925;28;20570;-58
2023/08/12 12:09:46;;;;;;;1.60;1.50;;;23.80;99.90;;;;;;5008484;28;20887;-53
2023/08/12 12:12:12;;;;;;;1.67;1.50;;;23.80;99.90;;;;;;5007968;28;20459;-55
2023/08/12 12:14:39;;;;;;;2.23;1.37;;;23.80;99.90;;;;;;5008547;28;20473;-58
2023/08/12 12:17:09;;;;;;;1.97;1.53;;;23.80;99.90;;;;;;5008582;28;20455;-62
2023/08/12 12:19:37;;;;;;;1.50;1.37;;;23.80;99.90;;;;;;5008187;28;20466;-63
2023/08/12 12:22:05;;;;;;;2.50;1.50;;;23.80;99.90;;;;;;5003007;28;20466;-66
2023/08/12 12:24:32;;;;;;;1.70;1.30;;;23.80;99.90;;;;;;5006857;28;20542;-65
2023/08/12 12:26:59;;;;;;;1.50;1.40;;;23.80;99.90;;;;;;5001537;28;20497;-64
2023/08/12 12:29:25;;;;;;;2.83;1.33;;;23.90;99.90;;;;;;5003428;28;20458;-60
2023/08/12 12:31:52;;;;;;;135.83;27.97;;;23.90;99.90;;;;;;5003083;28;20466;-55
2023/08/12 12:34:19;;;;;;;43.17;8.93;;;24.00;99.90;;;;;;5004558;28;20467;-58
2023/08/12 12:36:47;;;;;;;26.30;5.15;;;24.00;99.90;;;;;;5002579;28;20466;-54
2023/08/12 12:39:13;;;;;;;13.27;2.73;;;24.20;99.90;;;;;;4999883;28;20207;-52
2023/08/12 12:41:40;;;;;;;6.93;2.77;;;24.10;99.90;;;;;;5006547;28;20463;-54
2023/08/12 12:44:07;;;;;;;14.10;3.53;;;24.10;99.90;;;;;;5006389;28;21049;-53
2023/08/12 12:46:33;;;;;;;10.30;2.90;;;24.10;99.90;;;;;;5006257;28;20481;-51